Flight Track Log - Related Links

Times and Time Zones

All times are in EDT time to prevent confusion due to time zone crossing. See the PDT4314 flight status page for this flight to view local times or setup timezone preferences in your user account.

Time Position Orientation Groundspeed Altitude Reporting Facility
EDT Latitude Longitude Course Direction KTS MPH feet Rate Location/Type
Tue 06:56:00 PM 41.9713 -75.9021 180° South  Level Estimated
Tue 06:57:00 PM 41.9106 -75.9107 186° South  Level FlightAware Approximate
Tue 06:58:00 PM 41.8500 -75.9193 186° South  Level FlightAware Approximate
Tue 06:59:00 PM 41.7893 -75.9278 186° South  Level FlightAware Approximate
Tue 07:00:00 PM 41.7305 -75.9061 154° Southeast  Level Estimated
Tue 07:01:00 PM 41.6716 -75.8844 160° South  Level Estimated
Tue 07:02:00 PM 41.6128 -75.8628 159° South  Level Estimated
Tue 07:03:00 PM 41.5565 -75.8314 157° South  Level FlightAware Approximate
Tue 07:04:00 PM 41.4976 -75.8102 153° Southeast  Level Estimated
Tue 07:05:00 PM 41.4387 -75.7891 161° South  Level Estimated
Tue 07:06:00 PM 41.3833 -75.7550 155° Southeast  Level FlightAware Approximate
Tue 07:07:00 PM 41.3279 -75.7209 155° Southeast  Level FlightAware Approximate
Tue 07:08:00 PM 41.2688 -75.7010 162° South  Level Estimated
Tue 07:09:00 PM 41.2117 -75.6724 159° South  Level FlightAware Approximate
Tue 07:10:00 PM 41.1546 -75.6438 159° South  Level FlightAware Approximate
Tue 07:11:00 PM 41.0975 -75.6153 159° South  Level FlightAware Approximate
Tue 07:12:00 PM 41.0404 -75.5868 159° South  Level FlightAware Approximate
Tue 07:13:00 PM 40.9809 -75.5689 159° South  Level Estimated
Tue 07:14:00 PM 40.9215 -75.5510 163° South  Level Estimated
Tue 07:15:00 PM 40.8643 -75.5227 160° South  Level FlightAware Approximate
Tue 07:16:00 PM 40.8072 -75.4945 160° South  Level FlightAware Approximate
Tue 07:17:00 PM 40.7500 -75.4664 160° South  Level FlightAware Approximate
Tue 07:17:38 PM 41.1342 -75.6414 190° South 235 270 5,900  Level New York Center
Tue 07:18:00 PM 40.6902 -75.4508 190° South  Level Estimated
Tue 07:18:37 PM 41.0717 -75.6397 179° South 237 273 5,900  Level New York Center
Tue 07:19:00 PM 40.6303 -75.4663 191° South  Level FlightAware Approximate
Tue 07:19:37 PM 41.0011 -75.6347 177° South 237 273 5,900  Level New York Center
Tue 07:20:00 PM 40.5704 -75.4818 191° South  Level FlightAware Approximate
Tue 07:21:00 PM 40.5115 -75.4613 187° South  Level Estimated
Tue 07:21:02 PM 40.9078 -75.6225 174° South 237 273 6,000  Level New York Center
Tue 07:21:40 PM 40.8703 -75.6200 177° South 237 273 6,000  Level New York Center
Tue 07:22:00 PM 40.4544 -75.4896 201° Southwest  Level FlightAware Approximate
Tue 07:23:00 PM 40.3964 -75.4647 190° South  Level Estimated
Tue 07:23:05 PM 40.7750 -75.6075 174° South 237 273 6,000  Level New York Center
Tue 07:23:41 PM 40.7375 -75.6078 180° South 237 273 5,900  Descending New York Center
Tue 07:24:43 PM 40.6708 -75.6111 182° South 233 268 6,000  Climbing New York Center
Tue 07:26:14 PM 40.5667 -75.5833 169° South 235 270 5,900 -414 Descending Philadelphia TRACON
Tue 07:27:08 PM 40.5167 -75.5500 153° Southeast 265 305 5,000 -474 Descending Philadelphia TRACON
Tue 07:28:08 PM 40.4667 -75.5000 143° Southeast 246 283 5,000  Level Philadelphia TRACON
Tue 07:29:02 PM 40.4167 -75.4333 135° Southeast 242 278 5,000  Level Philadelphia TRACON
Tue 07:30:08 PM 40.3667 -75.3833 143° Southeast 239 275 5,000 -476 Level Philadelphia TRACON
Tue 07:31:08 PM 40.3000 -75.3333 150° Southeast 257 296 4,000 -496 Descending Philadelphia TRACON
Tue 07:32:09 PM 40.2500 -75.3000 153° Southeast 244 281 4,000  Level Philadelphia TRACON
Tue 07:33:09 PM 40.1833 -75.2667 159° South 234 269 4,000  Level Philadelphia TRACON
Tue 07:34:09 PM 40.1167 -75.2333 159° South 233 268 4,000  Level Philadelphia TRACON
Tue 07:35:09 PM 40.0667 -75.2167 166° South 231 266 4,000  Level Philadelphia TRACON
Tue 07:36:09 PM 40.0000 -75.1833 159° South 234 269 4,000  Level Philadelphia TRACON
Tue 07:37:09 PM 39.9333 -75.1667 169° South 238 274 4,000 -100 Level Philadelphia TRACON
Tue 07:38:09 PM 39.8667 -75.1333 159° South 236 272 3,800 -950 Descending Philadelphia TRACON
Tue 07:39:09 PM 39.8167 -75.1333 180° South 237 273 2,100 -1,211 Descending Philadelphia TRACON
Tue 07:40:03 PM 39.8167 -75.2000 270° West 169 194 1,500 -789 Descending Philadelphia TRACON
Tue 07:41:03 PM 39.8500 -75.2167 339° North 129 148 600 -900 Descending Philadelphia TRACON

Login

Don't have an account? Register now (free) for customized features, flight alerts, and more!